PST,Max TemperatureF,Mean TemperatureF,Min TemperatureF,Max Dew PointF,MeanDew PointF,Min DewpointF,Max Humidity, Mean Humidity, Min Humidity, Max Sea Level PressureIn, Mean Sea Level PressureIn, Min Sea Level PressureIn, Max VisibilityMiles, Mean VisibilityMiles, Min VisibilityMiles, Max Wind SpeedMPH, Mean Wind SpeedMPH, Max Gust SpeedMPH,PrecipitationIn, CloudCover, Events, WindDirDegrees
2012-11-1,48,38,26,39,33,21,100,81,37,30.16,30.10,30.06,10,8,2,21,8,33,0.08,4,Rain,194
2012-11-2,55,40,26,39,30,27,100,91,36,30.20,30.17,30.13,10,5,0,6,1,,0.00,5,Fog,146
2012-11-3,62,42,23,36,30,21,100,82,29,30.37,30.28,30.21,10,8,0,6,1,,0.00,1,Fog,179
2012-11-4,64,45,26,36,30,25,100,76,26,30.51,30.43,30.38,10,6,1,7,2,,0.00,1,,149
2012-11-5,66,45,24,36,30,23,100,78,28,30.53,30.45,30.38,10,7,1,8,1,,0.00,0,,39
2012-11-6,68,46,23,36,27,21,100,75,20,30.40,30.34,30.28,10,7,0,12,1,,0.00,1,Fog,194
2012-11-7,62,43,24,30,23,19,93,44,24,30.29,30.08,29.96,10,10,10,17,6,24,0.00,1,,210
2012-11-8,46,34,23,32,26,16,100,73,40,29.94,29.80,29.73,10,6,0,28,14,40,0.35,6,Rain-Snow,216
2012-11-9,28,19,10,21,15,9,100,83,64,29.84,29.79,29.76,10,10,5,10,6,17,0.01,4,Snow,200
2012-11-10,28,16,3,21,13,0,100,87,59,30.18,30.00,29.82,10,6,0,9,2,,0.00,4,Fog-Snow,149
2012-11-11,35,16,-2,27,11,-6,100,87,60,30.36,30.29,30.18,10,4,0,5,1,,0.00,4,Fog,143
2012-11-12,44,29,14,32,20,10,100,87,31,30.37,30.34,30.30,10,7,0,8,2,,0.00,4,Fog,158
2012-11-13,48,31,14,32,24,10,100,89,44,30.35,30.29,30.23,10,5,0,8,2,,0.00,4,Fog,165
2012-11-14,53,38,23,36,24,18,100,83,24,30.27,30.24,30.20,10,6,0,8,1,,0.00,3,Fog,150
2012-11-15,57,37,17,32,22,18,100,67,25,30.23,30.15,30.09,10,10,5,9,1,18,0.00,3,,222
2012-11-16,42,37,32,37,32,23,100,86,60,30.10,30.05,30.00,10,9,2,7,2,,0.03,7,Rain,238
2012-11-17,44,40,35,39,34,25,100,87,60,29.99,29.94,29.88,10,6,1,22,6,36,0.22,6,Rain,216
2012-11-18,41,36,32,34,31,28,100,83,70,30.18,30.07,29.97,10,8,2,25,9,30,0.13,8,Rain-Snow,209
2012-11-19,46,40,35,36,31,27,87,72,49,30.26,30.21,30.17,10,10,6,17,5,25,0.00,4,,222
2012-11-20,46,42,39,34,29,21,81,61,45,30.20,30.09,30.04,10,10,5,22,14,34,0.02,6,Rain,180
2012-11-21,46,35,24,37,31,25,100,83,57,30.28,30.13,29.96,10,10,5,18,10,33,0.01,3,Rain,191
2012-11-22,50,34,19,32,25,18,100,87,35,30.42,30.35,30.27,10,6,0,6,1,,0.00,3,Fog,5
2012-11-23,60,40,19,32,25,18,100,83,25,30.44,30.39,30.34,10,6,0,6,1,,0.00,3,Fog,150
2012-11-24,60,40,19,32,24,19,100,79,22,30.38,30.26,30.16,10,9,0,8,1,,0.00,0,Fog,176
2012-11-25,53,35,17,25,20,14,100,76,21,30.16,30.13,30.06,10,10,10,9,2,,0.00,1,,142
2012-11-26,57,36,15,25,20,10,93,76,16,30.21,30.17,30.12,10,10,1,8,1,,0.00,0,,167
2012-11-27,51,34,17,30,22,14,93,70,35,30.23,30.17,30.13,10,10,10,15,2,20,0.00,1,,189
2012-11-28,48,40,32,36,28,18,100,66,32,30.12,30.03,29.92,10,9,2,30,9,41,0.00,6,Rain-Snow,187
2012-11-29,48,44,39,36,33,19,81,72,32,30.06,30.00,29.91,10,8,2,29,17,46,0.17,7,Rain,192
2012-11-30,41,36,32,36,34,32,93,84,75,29.98,29.91,29.81,10,5,1,30,17,44,0.70,8,Rain,183